sensor_id;sensor_type;location;lat;lon;timestamp;pressure;altitude;pressure_sealevel;temperature;humidity
26043;BME280;13818;52.156;5.382;2023-07-30T00:00:22;100596.63;;;18.62;100.00
26043;BME280;13818;52.156;5.382;2023-07-30T00:02:49;100593.78;;;18.64;100.00
26043;BME280;13818;52.156;5.382;2023-07-30T00:05:15;100600.53;;;18.58;100.00
26043;BME280;13818;52.156;5.382;2023-07-30T00:07:43;100597.28;;;18.54;100.00
26043;BME280;13818;52.156;5.382;2023-07-30T00:10:10;100601.69;;;18.44;100.00
26043;BME280;13818;52.156;5.382;2023-07-30T00:12:36;100598.16;;;18.44;100.00
26043;BME280;13818;52.156;5.382;2023-07-30T00:15:03;100599.78;;;18.35;100.00
26043;BME280;13818;52.156;5.382;2023-07-30T00:17:29;100603.34;;;18.24;100.00
26043;BME280;13818;52.156;5.382;2023-07-30T00:19:56;100603.63;;;18.21;100.00
26043;BME280;13818;52.156;5.382;2023-07-30T00:22:22;100598.22;;;18.21;100.00
26043;BME280;13818;52.156;5.382;2023-07-30T00:24:50;100607.91;;;18.24;100.00
26043;BME280;13818;52.156;5.382;2023-07-30T00:27:16;100604.38;;;18.12;100.00
26043;BME280;13818;52.156;5.382;2023-07-30T00:29:43;100605.34;;;18.11;100.00
26043;BME280;13818;52.156;5.382;2023-07-30T00:32:09;100599.34;;;18.07;100.00
26043;BME280;13818;52.156;5.382;2023-07-30T00:34:36;100602.75;;;18.09;100.00
26043;BME280;13818;52.156;5.382;2023-07-30T00:37:03;100608.16;;;18.09;100.00
26043;BME280;13818;52.156;5.382;2023-07-30T00:39:29;100610.16;;;18.07;100.00
26043;BME280;13818;52.156;5.382;2023-07-30T00:41:57;100600.69;;;18.01;100.00
26043;BME280;13818;52.156;5.382;2023-07-30T00:44:24;100605.63;;;17.96;100.00
26043;BME280;13818;52.156;5.382;2023-07-30T00:46:50;100608.06;;;17.88;100.00
26043;BME280;13818;52.156;5.382;2023-07-30T00:49:17;100607.44;;;17.84;100.00
26043;BME280;13818;52.156;5.382;2023-07-30T00:51:43;100605.47;;;17.75;100.00
26043;BME280;13818;52.156;5.382;2023-07-30T00:54:10;100604.88;;;17.71;100.00
26043;BME280;13818;52.156;5.382;2023-07-30T00:56:37;100605.25;;;17.67;100.00
26043;BME280;13818;52.156;5.382;2023-07-30T00:59:05;100593.72;;;17.53;100.00
26043;BME280;13818;52.156;5.382;2023-07-30T01:01:33;100598.88;;;17.56;100.00
26043;BME280;13818;52.156;5.382;2023-07-30T01:04:02;100605.38;;;17.54;100.00
26043;BME280;13818;52.156;5.382;2023-07-30T01:06:29;100607.66;;;17.47;100.00
26043;BME280;13818;52.156;5.382;2023-07-30T01:08:55;100611.13;;;17.49;100.00
26043;BME280;13818;52.156;5.382;2023-07-30T01:11:22;100606.69;;;17.48;100.00
26043;BME280;13818;52.156;5.382;2023-07-30T01:13:48;100614.66;;;17.50;100.00
26043;BME280;13818;52.156;5.382;2023-07-30T01:16:17;100622.50;;;17.53;100.00
26043;BME280;13818;52.156;5.382;2023-07-30T01:18:43;100623.13;;;17.56;100.00
26043;BME280;13818;52.156;5.382;2023-07-30T01:21:11;100628.88;;;17.52;100.00
26043;BME280;13818;52.156;5.382;2023-07-30T01:23:37;100625.06;;;17.54;100.00
26043;BME280;13818;52.156;5.382;2023-07-30T01:26:08;100629.34;;;17.46;100.00
26043;BME280;13818;52.156;5.382;2023-07-30T01:28:37;100628.63;;;17.44;100.00
26043;BME280;13818;52.156;5.382;2023-07-30T01:31:06;100636.94;;;17.40;100.00
26043;BME280;13818;52.156;5.382;2023-07-30T01:33:33;100630.09;;;17.36;100.00
26043;BME280;13818;52.156;5.382;2023-07-30T01:36:01;100629.47;;;17.33;100.00
26043;BME280;13818;52.156;5.382;2023-07-30T01:38:29;100634.56;;;17.24;100.00
26043;BME280;13818;52.156;5.382;2023-07-30T01:40:56;100637.53;;;17.33;100.00
26043;BME280;13818;52.156;5.382;2023-07-30T01:43:23;100632.00;;;17.23;100.00
26043;BME280;13818;52.156;5.382;2023-07-30T01:45:49;100629.59;;;17.31;100.00
26043;BME280;13818;52.156;5.382;2023-07-30T01:48:15;100623.22;;;17.32;100.00
26043;BME280;13818;52.156;5.382;2023-07-30T01:50:42;100619.53;;;17.33;100.00
26043;BME280;13818;52.156;5.382;2023-07-30T01:53:12;100632.28;;;17.31;100.00
26043;BME280;13818;52.156;5.382;2023-07-30T01:55:40;100621.59;;;17.30;100.00
26043;BME280;13818;52.156;5.382;2023-07-30T01:58:08;100633.00;;;17.33;100.00
26043;BME280;13818;52.156;5.382;2023-07-30T02:00:35;100627.00;;;17.30;100.00
26043;BME280;13818;52.156;5.382;2023-07-30T02:03:01;100632.78;;;17.36;100.00
26043;BME280;13818;52.156;5.382;2023-07-30T02:05:28;100640.13;;;17.34;100.00
26043;BME280;13818;52.156;5.382;2023-07-30T02:07:54;100631.91;;;17.36;100.00
26043;BME280;13818;52.156;5.382;2023-07-30T02:10:21;100634.25;;;17.40;100.00
26043;BME280;13818;52.156;5.382;2023-07-30T02:12:49;100641.00;;;17.35;100.00
26043;BME280;13818;52.156;5.382;2023-07-30T02:15:15;100627.00;;;17.30;100.00
26043;BME280;13818;52.156;5.382;2023-07-30T02:17:42;100638.28;;;17.35;100.00
26043;BME280;13818;52.156;5.382;2023-07-30T02:20:09;100636.81;;;17.42;100.00
26043;BME280;13818;52.156;5.382;2023-07-30T02:22:35;100632.41;;;17.41;100.00
26043;BME280;13818;52.156;5.382;2023-07-30T02:25:02;100633.28;;;17.42;100.00
26043;BME280;13818;52.156;5.382;2023-07-30T02:27:28;100634.00;;;17.32;100.00
26043;BME280;13818;52.156;5.382;2023-07-30T02:29:56;100643.06;;;17.31;100.00
26043;BME280;13818;52.156;5.382;2023-07-30T02:32:23;100639.25;;;17.34;100.00
26043;BME280;13818;52.156;5.382;2023-07-30T02:34:49;100641.34;;;17.30;100.00
26043;BME280;13818;52.156;5.382;2023-07-30T02:37:16;100628.22;;;17.26;100.00
26043;BME280;13818;52.156;5.382;2023-07-30T02:39:42;100627.50;;;17.23;100.00
26043;BME280;13818;52.156;5.382;2023-07-30T02:42:09;100631.66;;;17.28;100.00
26043;BME280;13818;52.156;5.382;2023-07-30T02:44:35;100633.47;;;17.27;100.00
26043;BME280;13818;52.156;5.382;2023-07-30T02:47:03;100627.25;;;17.27;100.00
26043;BME280;13818;52.156;5.382;2023-07-30T02:49:30;100627.75;;;17.32;100.00
26043;BME280;13818;52.156;5.382;2023-07-30T02:51:56;100624.22;;;17.31;100.00
26043;BME280;13818;52.156;5.382;2023-07-30T02:54:23;100626.16;;;17.29;100.00
26043;BME280;13818;52.156;5.382;2023-07-30T02:56:49;100623.59;;;17.39;100.00
26043;BME280;13818;52.156;5.382;2023-07-30T02:59:15;100631.69;;;17.39;100.00
26043;BME280;13818;52.156;5.382;2023-07-30T03:01:42;100609.63;;;17.34;100.00
26043;BME280;13818;52.156;5.382;2023-07-30T03:04:11;100625.53;;;17.37;100.00
26043;BME280;13818;52.156;5.382;2023-07-30T03:06:37;100624.44;;;17.28;100.00
26043;BME280;13818;52.156;5.382;2023-07-30T03:09:03;100637.19;;;17.37;100.00
26043;BME280;13818;52.156;5.382;2023-07-30T03:11:30;100625.94;;;17.32;100.00
26043;BME280;13818;52.156;5.382;2023-07-30T03:13:56;100625.41;;;17.27;100.00
26043;BME280;13818;52.156;5.382;2023-07-30T03:16:23;100632.75;;;17.25;100.00
26043;BME280;13818;52.156;5.382;2023-07-30T03:18:49;100632.97;;;17.22;100.00
26043;BME280;13818;52.156;5.382;2023-07-30T03:21:17;100634.47;;;17.26;100.00
26043;BME280;13818;52.156;5.382;2023-07-30T03:23:43;100635.19;;;17.28;100.00
26043;BME280;13818;52.156;5.382;2023-07-30T03:26:10;100633.59;;;17.26;100.00
26043;BME280;13818;52.156;5.382;2023-07-30T03:28:36;100633.97;;;17.21;100.00
26043;BME280;13818;52.156;5.382;2023-07-30T03:31:03;100633.25;;;17.30;100.00
26043;BME280;13818;52.156;5.382;2023-07-30T03:33:29;100632.75;;;17.25;100.00
26043;BME280;13818;52.156;5.382;2023-07-30T03:35:56;100629.56;;;17.20;100.00
26043;BME280;13818;52.156;5.382;2023-07-30T03:38:23;100642.16;;;17.19;100.00
26043;BME280;13818;52.156;5.382;2023-07-30T03:40:50;100648.28;;;17.21;100.00
26043;BME280;13818;52.156;5.382;2023-07-30T03:43:16;100642.41;;;17.16;100.00
26043;BME280;13818;52.156;5.382;2023-07-30T03:45:43;100647.03;;;17.14;100.00
26043;BME280;13818;52.156;5.382;2023-07-30T03:48:09;100644.84;;;17.19;100.00
26043;BME280;13818;52.156;5.382;2023-07-30T03:50:36;100644.97;;;17.18;100.00
26043;BME280;13818;52.156;5.382;2023-07-30T03:53:02;100642.28;;;17.18;100.00
26043;BME280;13818;52.156;5.382;2023-07-30T03:55:30;100650.72;;;17.13;100.00
26043;BME280;13818;52.156;5.382;2023-07-30T03:57:57;100648.38;;;17.08;100.00
26043;BME280;13818;52.156;5.382;2023-07-30T04:00:23;100644.59;;;17.11;100.00
26043;BME280;13818;52.156;5.382;2023-07-30T04:02:50;100645.69;;;17.08;100.00
26043;BME280;13818;52.156;5.382;2023-07-30T04:05:16;100644.09;;;17.06;100.00
26043;BME280;13818;52.156;5.382;2023-07-30T04:07:43;100649.38;;;17.07;100.00
26043;BME280;13818;52.156;5.382;2023-07-30T04:10:09;100647.97;;;17.02;100.00
26043;BME280;13818;52.156;5.382;2023-07-30T04:12:37;100644.94;;;17.06;100.00
26043;BME280;13818;52.156;5.382;2023-07-30T04:15:04;100644.56;;;17.00;100.00
26043;BME280;13818;52.156;5.382;2023-07-30T04:17:31;100643.69;;;16.99;100.00
26043;BME280;13818;52.156;5.382;2023-07-30T04:19:57;100643.81;;;16.98;100.00
26043;BME280;13818;52.156;5.382;2023-07-30T04:22:24;100657.16;;;16.99;100.00
26043;BME280;13818;52.156;5.382;2023-07-30T04:24:51;100653.22;;;16.92;100.00
26043;BME280;13818;52.156;5.382;2023-07-30T04:27:17;100652.03;;;16.96;100.00
26043;BME280;13818;52.156;5.382;2023-07-30T04:29:45;100664.06;;;16.90;100.00
26043;BME280;13818;52.156;5.382;2023-07-30T04:32:11;100657.06;;;16.88;100.00
26043;BME280;13818;52.156;5.382;2023-07-30T04:34:38;100666.75;;;16.90;100.00
26043;BME280;13818;52.156;5.382;2023-07-30T04:37:06;100654.28;;;16.89;100.00
26043;BME280;13818;52.156;5.382;2023-07-30T04:39:32;100669.91;;;16.84;100.00
26043;BME280;13818;52.156;5.382;2023-07-30T04:41:59;100672.59;;;16.84;100.00
26043;BME280;13818;52.156;5.382;2023-07-30T04:44:25;100670.22;;;16.92;100.00
26043;BME280;13818;52.156;5.382;2023-07-30T04:46:53;100674.81;;;16.90;100.00
26043;BME280;13818;52.156;5.382;2023-07-30T04:49:20;100674.78;;;16.92;100.00
26043;BME280;13818;52.156;5.382;2023-07-30T04:51:47;100680.16;;;16.92;100.00
26043;BME280;13818;52.156;5.382;2023-07-30T04:54:14;100674.09;;;16.88;100.00
26043;BME280;13818;52.156;5.382;2023-07-30T04:56:40;100681.00;;;16.92;100.00
26043;BME280;13818;52.156;5.382;2023-07-30T04:59:07;100676.00;;;16.99;100.00
26043;BME280;13818;52.156;5.382;2023-07-30T05:01:33;100687.06;;;17.07;100.00
26043;BME280;13818;52.156;5.382;2023-07-30T05:04:01;100685.50;;;17.16;100.00
26043;BME280;13818;52.156;5.382;2023-07-30T05:06:27;100677.56;;;17.26;100.00
26043;BME280;13818;52.156;5.382;2023-07-30T05:08:54;100684.44;;;17.30;100.00
26043;BME280;13818;52.156;5.382;2023-07-30T05:11:20;100686.16;;;17.31;100.00
26043;BME280;13818;52.156;5.382;2023-07-30T05:13:47;100684.94;;;17.35;100.00
26043;BME280;13818;52.156;5.382;2023-07-30T05:16:14;100688.13;;;17.40;100.00
26043;BME280;13818;52.156;5.382;2023-07-30T05:18:40;100688.63;;;17.46;100.00
26043;BME280;13818;52.156;5.382;2023-07-30T05:21:08;100687.06;;;17.54;100.00
26043;BME280;13818;52.156;5.382;2023-07-30T05:23:34;100700.06;;;17.61;100.00
26043;BME280;13818;52.156;5.382;2023-07-30T05:26:01;100692.72;;;17.63;100.00
26043;BME280;13818;52.156;5.382;2023-07-30T05:28:27;100694.94;;;17.69;100.00
26043;BME280;13818;52.156;5.382;2023-07-30T05:30:54;100688.94;;;17.77;100.00
26043;BME280;13818;52.156;5.382;2023-07-30T05:33:20;100692.13;;;17.82;100.00
26043;BME280;13818;52.156;5.382;2023-07-30T05:35:47;100691.50;;;17.89;100.00
26043;BME280;13818;52.156;5.382;2023-07-30T05:38:14;100685.28;;;18.00;100.00
26043;BME280;13818;52.156;5.382;2023-07-30T05:40:41;100694.22;;;18.12;100.00
26043;BME280;13818;52.156;5.382;2023-07-30T05:43:08;100693.25;;;18.13;100.00
26043;BME280;13818;52.156;5.382;2023-07-30T05:45:34;100680.72;;;18.24;100.00
26043;BME280;13818;52.156;5.382;2023-07-30T05:48:01;100689.03;;;18.32;100.00
26043;BME280;13818;52.156;5.382;2023-07-30T05:50:27;100692.13;;;18.38;100.00
26043;BME280;13818;52.156;5.382;2023-07-30T05:52:54;100686.69;;;18.50;100.00
26043;BME280;13818;52.156;5.382;2023-07-30T05:55:21;100681.75;;;18.66;100.00
26043;BME280;13818;52.156;5.382;2023-07-30T05:57:48;100694.69;;;18.84;100.00
26043;BME280;13818;52.156;5.382;2023-07-30T06:00:14;100693.00;;;19.15;100.00
26043;BME280;13818;52.156;5.382;2023-07-30T06:02:41;100688.19;;;19.40;100.00
26043;BME280;13818;52.156;5.382;2023-07-30T06:05:08;100681.19;;;19.38;100.00
26043;BME280;13818;52.156;5.382;2023-07-30T06:07:34;100701.59;;;19.42;100.00
26043;BME280;13818;52.156;5.382;2023-07-30T06:10:01;100698.00;;;19.41;100.00
26043;BME280;13818;52.156;5.382;2023-07-30T06:12:29;100698.59;;;19.24;100.00
26043;BME280;13818;52.156;5.382;2023-07-30T06:14:58;100693.72;;;19.17;100.00
26043;BME280;13818;52.156;5.382;2023-07-30T06:17:25;100695.63;;;19.06;100.00
26043;BME280;13818;52.156;5.382;2023-07-30T06:19:51;100702.75;;;19.07;100.00
26043;BME280;13818;52.156;5.382;2023-07-30T06:22:17;100702.03;;;18.93;100.00
26043;BME280;13818;52.156;5.382;2023-07-30T06:24:45;100693.09;;;18.93;100.00
26043;BME280;13818;52.156;5.382;2023-07-30T06:27:11;100692.50;;;18.78;100.00
26043;BME280;13818;52.156;5.382;2023-07-30T06:29:39;100698.88;;;18.77;100.00
26043;BME280;13818;52.156;5.382;2023-07-30T06:32:06;100692.22;;;18.81;100.00
26043;BME280;13818;52.156;5.382;2023-07-30T06:34:33;100700.94;;;18.96;100.00
26043;BME280;13818;52.156;5.382;2023-07-30T06:36:59;100697.84;;;19.00;100.00
26043;BME280;13818;52.156;5.382;2023-07-30T06:39:26;100703.44;;;19.09;100.00
26043;BME280;13818;52.156;5.382;2023-07-30T06:41:52;100694.97;;;19.13;100.00
26043;BME280;13818;52.156;5.382;2023-07-30T06:44:19;100689.16;;;18.97;100.00
26043;BME280;13818;52.156;5.382;2023-07-30T06:46:46;100687.44;;;18.96;100.00
26043;BME280;13818;52.156;5.382;2023-07-30T06:49:13;100684.03;;;19.15;100.00
26043;BME280;13818;52.156;5.382;2023-07-30T06:51:39;100673.91;;;19.28;100.00
26043;BME280;13818;52.156;5.382;2023-07-30T06:54:06;100679.38;;;19.38;100.00
26043;BME280;13818;52.156;5.382;2023-07-30T06:56:32;100686.66;;;19.47;100.00
26043;BME280;13818;52.156;5.382;2023-07-30T06:58:59;100684.78;;;19.38;100.00
26043;BME280;13818;52.156;5.382;2023-07-30T07:01:25;100682.47;;;19.33;100.00
26043;BME280;13818;52.156;5.382;2023-07-30T07:03:53;100694.00;;;19.35;100.00
26043;BME280;13818;52.156;5.382;2023-07-30T07:06:19;100690.22;;;19.06;100.00
26043;BME280;13818;52.156;5.382;2023-07-30T07:08:46;100693.25;;;18.91;100.00
26043;BME280;13818;52.156;5.382;2023-07-30T07:11:12;100708.06;;;18.97;100.00
26043;BME280;13818;52.156;5.382;2023-07-30T07:13:39;100702.31;;;18.79;100.00
26043;BME280;13818;52.156;5.382;2023-07-30T07:16:05;100701.22;;;18.81;100.00
26043;BME280;13818;52.156;5.382;2023-07-30T07:18:32;100712.22;;;18.90;100.00
26043;BME280;13818;52.156;5.382;2023-07-30T07:20:59;100706.81;;;18.90;100.00
26043;BME280;13818;52.156;5.382;2023-07-30T07:23:26;100707.31;;;18.95;100.00
26043;BME280;13818;52.156;5.382;2023-07-30T07:25:52;100701.88;;;19.06;100.00
26043;BME280;13818;52.156;5.382;2023-07-30T07:28:19;100704.50;;;19.17;100.00
26043;BME280;13818;52.156;5.382;2023-07-30T07:30:45;100704.41;;;19.19;100.00
26043;BME280;13818;52.156;5.382;2023-07-30T07:33:14;100702.44;;;19.42;100.00
26043;BME280;13818;52.156;5.382;2023-07-30T07:35:40;100700.34;;;19.77;100.00
26043;BME280;13818;52.156;5.382;2023-07-30T07:38:08;100705.31;;;19.93;100.00
26043;BME280;13818;52.156;5.382;2023-07-30T07:40:36;100707.91;;;20.04;100.00
26043;BME280;13818;52.156;5.382;2023-07-30T07:43:04;100701.06;;;20.00;100.00
26043;BME280;13818;52.156;5.382;2023-07-30T07:45:31;100693.00;;;20.10;100.00
26043;BME280;13818;52.156;5.382;2023-07-30T07:47:57;100709.50;;;20.07;100.00
26043;BME280;13818;52.156;5.382;2023-07-30T07:50:24;100698.97;;;20.54;100.00
26043;BME280;13818;52.156;5.382;2023-07-30T07:52:50;100700.91;;;20.83;100.00
26043;BME280;13818;52.156;5.382;2023-07-30T07:55:18;100695.03;;;20.97;100.00
26043;BME280;13818;52.156;5.382;2023-07-30T07:57:44;100707.63;;;21.18;100.00
26043;BME280;13818;52.156;5.382;2023-07-30T08:00:11;100709.59;;;21.16;100.00
26043;BME280;13818;52.156;5.382;2023-07-30T08:02:38;100712.16;;;21.08;100.00
26043;BME280;13818;52.156;5.382;2023-07-30T08:05:04;100695.78;;;21.00;100.00
26043;BME280;13818;52.156;5.382;2023-07-30T08:07:32;100711.88;;;20.91;100.00
26043;BME280;13818;52.156;5.382;2023-07-30T08:09:58;100726.84;;;21.05;100.00
26043;BME280;13818;52.156;5.382;2023-07-30T08:12:26;100706.47;;;21.11;100.00
26043;BME280;13818;52.156;5.382;2023-07-30T08:14:53;100709.88;;;21.33;100.00
26043;BME280;13818;52.156;5.382;2023-07-30T08:17:21;100712.03;;;21.00;100.00
26043;BME280;13818;52.156;5.382;2023-07-30T08:19:47;100708.72;;;20.86;100.00
26043;BME280;13818;52.156;5.382;2023-07-30T08:22:14;100703.53;;;20.63;100.00
26043;BME280;13818;52.156;5.382;2023-07-30T08:24:40;100698.22;;;20.42;100.00
26043;BME280;13818;52.156;5.382;2023-07-30T08:27:07;100683.00;;;20.41;100.00
26043;BME280;13818;52.156;5.382;2023-07-30T08:29:35;100706.44;;;20.31;100.00
26043;BME280;13818;52.156;5.382;2023-07-30T08:32:03;100707.69;;;20.17;100.00
26043;BME280;13818;52.156;5.382;2023-07-30T08:34:29;100703.53;;;20.13;100.00
26043;BME280;13818;52.156;5.382;2023-07-30T08:36:55;100714.47;;;20.02;100.00
26043;BME280;13818;52.156;5.382;2023-07-30T08:39:22;100708.22;;;19.80;100.00
26043;BME280;13818;52.156;5.382;2023-07-30T08:41:49;100713.28;;;19.94;100.00
26043;BME280;13818;52.156;5.382;2023-07-30T08:44:16;100714.16;;;19.95;100.00
26043;BME280;13818;52.156;5.382;2023-07-30T08:46:44;100712.03;;;19.98;100.00
26043;BME280;13818;52.156;5.382;2023-07-30T08:49:10;100712.16;;;19.97;100.00
26043;BME280;13818;52.156;5.382;2023-07-30T08:51:39;100716.34;;;20.11;100.00
26043;BME280;13818;52.156;5.382;2023-07-30T08:54:09;100706.19;;;20.34;100.00
26043;BME280;13818;52.156;5.382;2023-07-30T08:56:36;100708.59;;;20.78;100.00
26043;BME280;13818;52.156;5.382;2023-07-30T08:59:03;100714.59;;;21.21;100.00
26043;BME280;13818;52.156;5.382;2023-07-30T09:01:34;100709.78;;;21.91;100.00
26043;BME280;13818;52.156;5.382;2023-07-30T09:04:02;100711.81;;;22.17;100.00
26043;BME280;13818;52.156;5.382;2023-07-30T09:06:29;100701.06;;;22.25;100.00
26043;BME280;13818;52.156;5.382;2023-07-30T09:08:56;100708.41;;;22.15;100.00
26043;BME280;13818;52.156;5.382;2023-07-30T09:11:25;100712.56;;;22.09;100.00
26043;BME280;13818;52.156;5.382;2023-07-30T09:13:53;100706.41;;;22.07;100.00
26043;BME280;13818;52.156;5.382;2023-07-30T09:16:24;100722.81;;;22.16;100.00
26043;BME280;13818;52.156;5.382;2023-07-30T09:18:51;100715.09;;;22.11;100.00
26043;BME280;13818;52.156;5.382;2023-07-30T09:21:29;100727.94;;;22.19;100.00
26043;BME280;13818;52.156;5.382;2023-07-30T09:23:55;100723.47;;;21.90;100.00
26043;BME280;13818;52.156;5.382;2023-07-30T09:26:22;100731.91;;;21.87;100.00
26043;BME280;13818;52.156;5.382;2023-07-30T09:28:48;100730.34;;;21.84;100.00
26043;BME280;13818;52.156;5.382;2023-07-30T09:31:14;100739.22;;;21.86;100.00
26043;BME280;13818;52.156;5.382;2023-07-30T09:33:41;100742.78;;;21.67;100.00
26043;BME280;13818;52.156;5.382;2023-07-30T09:36:08;100749.22;;;21.46;100.00
26043;BME280;13818;52.156;5.382;2023-07-30T09:38:40;100752.97;;;21.55;100.00
26043;BME280;13818;52.156;5.382;2023-07-30T09:41:07;100744.69;;;21.27;100.00
26043;BME280;13818;52.156;5.382;2023-07-30T09:43:35;100743.97;;;21.06;100.00
26043;BME280;13818;52.156;5.382;2023-07-30T09:46:02;100750.53;;;21.13;100.00
26043;BME280;13818;52.156;5.382;2023-07-30T09:48:29;100752.50;;;21.30;100.00
26043;BME280;13818;52.156;5.382;2023-07-30T09:50:58;100762.78;;;21.46;100.00
26043;BME280;13818;52.156;5.382;2023-07-30T09:53:25;100757.78;;;21.52;100.00
26043;BME280;13818;52.156;5.382;2023-07-30T09:55:55;100741.53;;;21.61;100.00
26043;BME280;13818;52.156;5.382;2023-07-30T09:58:22;100761.75;;;21.97;100.00
26043;BME280;13818;52.156;5.382;2023-07-30T10:00:49;100752.22;;;22.20;100.00
26043;BME280;13818;52.156;5.382;2023-07-30T10:03:18;100776.31;;;22.43;100.00
26043;BME280;13818;52.156;5.382;2023-07-30T10:05:46;100764.28;;;22.73;100.00
26043;BME280;13818;52.156;5.382;2023-07-30T10:08:17;100763.13;;;22.94;100.00
26043;BME280;13818;52.156;5.382;2023-07-30T10:10:46;100763.13;;;22.94;100.00
26043;BME280;13818;52.156;5.382;2023-07-30T10:13:15;100767.56;;;23.13;100.00
26043;BME280;13818;52.156;5.382;2023-07-30T10:15:43;100756.97;;;23.38;100.00
26043;BME280;13818;52.156;5.382;2023-07-30T10:18:09;100773.41;;;23.54;100.00
26043;BME280;13818;52.156;5.382;2023-07-30T10:20:36;100764.00;;;23.49;100.00
26043;BME280;13818;52.156;5.382;2023-07-30T10:23:04;100781.13;;;23.59;100.00
26043;BME280;13818;52.156;5.382;2023-07-30T10:25:42;100768.31;;;23.51;100.00
26043;BME280;13818;52.156;5.382;2023-07-30T10:28:09;100769.91;;;23.62;100.00
26043;BME280;13818;52.156;5.382;2023-07-30T10:30:36;100774.13;;;23.38;100.00
26043;BME280;13818;52.156;5.382;2023-07-30T10:33:04;100779.41;;;23.22;100.00
26043;BME280;13818;52.156;5.382;2023-07-30T10:35:39;100778.44;;;23.13;100.00
26043;BME280;13818;52.156;5.382;2023-07-30T10:38:16;100781.59;;;22.90;100.00
26043;BME280;13818;52.156;5.382;2023-07-30T10:40:59;100776.56;;;22.96;100.00
26043;BME280;13818;52.156;5.382;2023-07-30T10:43:27;100780.00;;;22.98;100.00
26043;BME280;13818;52.156;5.382;2023-07-30T10:45:56;100778.06;;;23.08;100.00
26043;BME280;13818;52.156;5.382;2023-07-30T10:48:30;100784.63;;;23.15;100.00
26043;BME280;13818;52.156;5.382;2023-07-30T10:50:57;100787.47;;;23.14;100.00
26043;BME280;13818;52.156;5.382;2023-07-30T10:53:24;100795.47;;;22.97;100.00
26043;BME280;13818;52.156;5.382;2023-07-30T10:55:50;100798.03;;;22.71;100.00
26043;BME280;13818;52.156;5.382;2023-07-30T10:58:18;100794.81;;;22.85;100.00
26043;BME280;13818;52.156;5.382;2023-07-30T11:00:44;100780.00;;;22.98;100.00
26043;BME280;13818;52.156;5.382;2023-07-30T11:03:12;100788.09;;;23.07;100.00
26043;BME280;13818;52.156;5.382;2023-07-30T11:05:39;100796.81;;;23.29;100.00
26043;BME280;13818;52.156;5.382;2023-07-30T11:08:05;100789.44;;;23.39;98.95
26043;BME280;13818;52.156;5.382;2023-07-30T11:10:31;100787.03;;;23.36;97.09
26043;BME280;13818;52.156;5.382;2023-07-30T11:12:58;100780.03;;;23.34;95.88
26043;BME280;13818;52.156;5.382;2023-07-30T11:15:25;100795.66;;;23.32;99.07
26043;BME280;13818;52.156;5.382;2023-07-30T11:17:51;100800.47;;;23.38;98.38
26043;BME280;13818;52.156;5.382;2023-07-30T11:20:25;100807.63;;;23.39;96.93
26043;BME280;13818;52.156;5.382;2023-07-30T11:22:52;100811.06;;;22.95;99.93
26043;BME280;13818;52.156;5.382;2023-07-30T11:25:19;100822.91;;;22.94;99.47
26043;BME280;13818;52.156;5.382;2023-07-30T11:27:46;100802.66;;;22.88;100.00
26043;BME280;13818;52.156;5.382;2023-07-30T11:30:13;100824.41;;;22.88;100.00
26043;BME280;13818;52.156;5.382;2023-07-30T11:32:40;100818.47;;;22.75;100.00
26043;BME280;13818;52.156;5.382;2023-07-30T11:35:07;100832.47;;;22.70;100.00
26043;BME280;13818;52.156;5.382;2023-07-30T11:37:36;100830.28;;;22.56;100.00
26043;BME280;13818;52.156;5.382;2023-07-30T11:40:06;100820.22;;;22.66;100.00
26043;BME280;13818;52.156;5.382;2023-07-30T11:42:33;100829.22;;;22.67;100.00
26043;BME280;13818;52.156;5.382;2023-07-30T11:45:16;100825.56;;;22.86;100.00
26043;BME280;13818;52.156;5.382;2023-07-30T11:47:43;100834.25;;;22.89;100.00
26043;BME280;13818;52.156;5.382;2023-07-30T11:50:09;100824.06;;;22.73;100.00
26043;BME280;13818;52.156;5.382;2023-07-30T11:52:50;100834.88;;;22.83;100.00
26043;BME280;13818;52.156;5.382;2023-07-30T11:55:17;100828.56;;;22.83;100.00
26043;BME280;13818;52.156;5.382;2023-07-30T11:57:45;100831.31;;;23.01;100.00
26043;BME280;13818;52.156;5.382;2023-07-30T12:00:12;100825.97;;;23.09;100.00
26043;BME280;13818;52.156;5.382;2023-07-30T12:02:39;100832.34;;;23.28;100.00
26043;BME280;13818;52.156;5.382;2023-07-30T12:05:06;100825.94;;;23.37;100.00
26043;BME280;13818;52.156;5.382;2023-07-30T12:07:41;100827.81;;;23.54;100.00
26043;BME280;13818;52.156;5.382;2023-07-30T12:10:09;100826.47;;;23.59;100.00
26043;BME280;13818;52.156;5.382;2023-07-30T12:12:36;100829.16;;;23.50;100.00
26043;BME280;13818;52.156;5.382;2023-07-30T12:15:10;100830.69;;;23.71;100.00
26043;BME280;13818;52.156;5.382;2023-07-30T12:17:37;100832.69;;;23.87;100.00
26043;BME280;13818;52.156;5.382;2023-07-30T12:20:04;100838.38;;;23.76;98.95
26043;BME280;13818;52.156;5.382;2023-07-30T12:22:32;100843.13;;;23.37;100.00
26043;BME280;13818;52.156;5.382;2023-07-30T12:25:01;100833.50;;;23.43;100.00
26043;BME280;13818;52.156;5.382;2023-07-30T12:27:28;100838.78;;;23.45;100.00
26043;BME280;13818;52.156;5.382;2023-07-30T12:29:55;100829.91;;;23.24;100.00
26043;BME280;13818;52.156;5.382;2023-07-30T12:32:21;100827.38;;;23.13;100.00
26043;BME280;13818;52.156;5.382;2023-07-30T12:34:48;100840.94;;;22.95;100.00
26043;BME280;13818;52.156;5.382;2023-07-30T12:37:14;100841.13;;;23.12;99.92
26043;BME280;13818;52.156;5.382;2023-07-30T12:39:41;100834.03;;;23.29;97.25